sensor_id;sensor_type;location;lat;lon;timestamp;P1;durP1;ratioP1;P2;durP2;ratioP2
73841;SDS011;62184;52.006;5.924;2023-04-03T00:00:36;6.10;;;3.60;;
73841;SDS011;62184;52.006;5.924;2023-04-03T00:03:02;5.77;;;3.03;;
73841;SDS011;62184;52.006;5.924;2023-04-03T00:05:29;6.03;;;3.20;;
73841;SDS011;62184;52.006;5.924;2023-04-03T00:07:55;5.40;;;3.03;;
73841;SDS011;62184;52.006;5.924;2023-04-03T00:10:22;6.03;;;3.10;;
73841;SDS011;62184;52.006;5.924;2023-04-03T00:12:48;7.03;;;3.00;;
73841;SDS011;62184;52.006;5.924;2023-04-03T00:15:15;6.25;;;2.83;;
73841;SDS011;62184;52.006;5.924;2023-04-03T00:17:45;6.05;;;2.80;;
73841;SDS011;62184;52.006;5.924;2023-04-03T00:20:11;6.00;;;3.30;;
73841;SDS011;62184;52.006;5.924;2023-04-03T00:22:38;6.63;;;3.30;;
73841;SDS011;62184;52.006;5.924;2023-04-03T00:25:05;8.07;;;3.10;;
73841;SDS011;62184;52.006;5.924;2023-04-03T00:27:33;6.30;;;3.20;;
73841;SDS011;62184;52.006;5.924;2023-04-03T00:30:02;5.53;;;3.20;;
73841;SDS011;62184;52.006;5.924;2023-04-03T00:32:29;6.28;;;2.97;;
73841;SDS011;62184;52.006;5.924;2023-04-03T00:34:58;6.20;;;2.90;;
73841;SDS011;62184;52.006;5.924;2023-04-03T00:37:25;6.38;;;2.80;;
73841;SDS011;62184;52.006;5.924;2023-04-03T00:39:51;6.40;;;3.50;;
73841;SDS011;62184;52.006;5.924;2023-04-03T00:42:18;6.40;;;3.17;;
73841;SDS011;62184;52.006;5.924;2023-04-03T00:47:51;6.45;;;3.30;;
73841;SDS011;62184;52.006;5.924;2023-04-03T00:50:20;6.72;;;3.10;;
73841;SDS011;62184;52.006;5.924;2023-04-03T00:52:47;6.40;;;3.22;;
73841;SDS011;62184;52.006;5.924;2023-04-03T00:55:14;7.17;;;3.17;;
73841;SDS011;62184;52.006;5.924;2023-04-03T00:57:41;7.10;;;3.20;;
73841;SDS011;62184;52.006;5.924;2023-04-03T01:00:11;7.50;;;3.17;;
73841;SDS011;62184;52.006;5.924;2023-04-03T01:02:42;6.63;;;2.85;;
73841;SDS011;62184;52.006;5.924;2023-04-03T01:05:09;7.10;;;3.30;;
73841;SDS011;62184;52.006;5.924;2023-04-03T01:07:39;6.18;;;2.80;;
73841;SDS011;62184;52.006;5.924;2023-04-03T01:10:07;6.25;;;2.92;;
73841;SDS011;62184;52.006;5.924;2023-04-03T01:12:38;5.72;;;2.88;;
73841;SDS011;62184;52.006;5.924;2023-04-03T01:15:09;5.43;;;2.83;;
73841;SDS011;62184;52.006;5.924;2023-04-03T01:17:39;7.10;;;3.00;;
73841;SDS011;62184;52.006;5.924;2023-04-03T01:20:22;9.00;;;3.00;;
73841;SDS011;62184;52.006;5.924;2023-04-03T01:23:42;8.27;;;3.15;;
73841;SDS011;62184;52.006;5.924;2023-04-03T01:26:21;5.68;;;2.60;;
73841;SDS011;62184;52.006;5.924;2023-04-03T01:28:47;6.30;;;2.88;;
73841;SDS011;62184;52.006;5.924;2023-04-03T01:31:15;6.38;;;3.33;;
73841;SDS011;62184;52.006;5.924;2023-04-03T01:33:53;6.90;;;3.25;;
73841;SDS011;62184;52.006;5.924;2023-04-03T01:36:21;6.50;;;3.00;;
73841;SDS011;62184;52.006;5.924;2023-04-03T01:38:49;6.95;;;3.13;;
73841;SDS011;62184;52.006;5.924;2023-04-03T01:41:17;5.83;;;3.10;;
73841;SDS011;62184;52.006;5.924;2023-04-03T01:43:45;8.33;;;3.23;;
73841;SDS011;62184;52.006;5.924;2023-04-03T01:46:12;6.75;;;2.83;;
73841;SDS011;62184;52.006;5.924;2023-04-03T01:48:38;7.50;;;2.95;;
73841;SDS011;62184;52.006;5.924;2023-04-03T01:51:08;7.05;;;3.15;;
73841;SDS011;62184;52.006;5.924;2023-04-03T01:53:35;6.40;;;3.13;;
73841;SDS011;62184;52.006;5.924;2023-04-03T01:56:02;6.68;;;3.03;;
73841;SDS011;62184;52.006;5.924;2023-04-03T01:58:29;6.35;;;2.80;;
73841;SDS011;62184;52.006;5.924;2023-04-03T02:00:56;7.20;;;3.10;;
73841;SDS011;62184;52.006;5.924;2023-04-03T02:03:22;8.80;;;3.58;;
73841;SDS011;62184;52.006;5.924;2023-04-03T02:05:49;6.60;;;3.13;;
73841;SDS011;62184;52.006;5.924;2023-04-03T02:08:18;8.25;;;3.47;;
73841;SDS011;62184;52.006;5.924;2023-04-03T02:10:46;6.23;;;3.10;;
73841;SDS011;62184;52.006;5.924;2023-04-03T02:13:13;7.78;;;3.20;;
73841;SDS011;62184;52.006;5.924;2023-04-03T02:15:39;6.00;;;2.92;;
73841;SDS011;62184;52.006;5.924;2023-04-03T02:18:06;7.70;;;3.43;;
73841;SDS011;62184;52.006;5.924;2023-04-03T02:20:33;7.38;;;3.10;;
73841;SDS011;62184;52.006;5.924;2023-04-03T02:23:00;8.00;;;3.28;;
73841;SDS011;62184;52.006;5.924;2023-04-03T02:25:29;8.48;;;3.17;;
73841;SDS011;62184;52.006;5.924;2023-04-03T02:27:57;7.28;;;3.17;;
73841;SDS011;62184;52.006;5.924;2023-04-03T02:30:23;8.88;;;3.00;;
73841;SDS011;62184;52.006;5.924;2023-04-03T02:32:50;6.70;;;3.00;;
73841;SDS011;62184;52.006;5.924;2023-04-03T02:35:17;7.70;;;3.28;;
73841;SDS011;62184;52.006;5.924;2023-04-03T02:37:46;6.87;;;3.20;;
73841;SDS011;62184;52.006;5.924;2023-04-03T02:40:12;6.80;;;3.00;;
73841;SDS011;62184;52.006;5.924;2023-04-03T02:42:41;7.67;;;3.30;;
73841;SDS011;62184;52.006;5.924;2023-04-03T02:45:08;8.90;;;3.30;;
73841;SDS011;62184;52.006;5.924;2023-04-03T02:47:35;7.75;;;3.25;;
73841;SDS011;62184;52.006;5.924;2023-04-03T02:50:02;8.00;;;3.45;;
73841;SDS011;62184;52.006;5.924;2023-04-03T02:52:29;7.03;;;3.35;;
73841;SDS011;62184;52.006;5.924;2023-04-03T02:54:55;7.65;;;3.67;;
73841;SDS011;62184;52.006;5.924;2023-04-03T02:57:21;6.53;;;3.80;;
73841;SDS011;62184;52.006;5.924;2023-04-03T02:59:50;7.28;;;3.10;;
73841;SDS011;62184;52.006;5.924;2023-04-03T03:02:17;8.25;;;4.03;;
73841;SDS011;62184;52.006;5.924;2023-04-03T03:04:43;7.10;;;3.35;;
73841;SDS011;62184;52.006;5.924;2023-04-03T03:07:10;8.40;;;3.20;;
73841;SDS011;62184;52.006;5.924;2023-04-03T03:09:36;6.82;;;3.30;;
73841;SDS011;62184;52.006;5.924;2023-04-03T03:12:03;8.32;;;3.20;;
73841;SDS011;62184;52.006;5.924;2023-04-03T03:14:30;7.60;;;3.45;;
73841;SDS011;62184;52.006;5.924;2023-04-03T03:16:59;8.35;;;3.33;;
73841;SDS011;62184;52.006;5.924;2023-04-03T03:19:25;8.07;;;3.40;;
73841;SDS011;62184;52.006;5.924;2023-04-03T03:21:52;8.88;;;4.05;;
73841;SDS011;62184;52.006;5.924;2023-04-03T03:24:18;7.70;;;3.85;;
73841;SDS011;62184;52.006;5.924;2023-04-03T03:26:44;8.82;;;3.70;;
73841;SDS011;62184;52.006;5.924;2023-04-03T03:29:11;8.02;;;3.80;;
73841;SDS011;62184;52.006;5.924;2023-04-03T03:31:37;8.77;;;3.53;;
73841;SDS011;62184;52.006;5.924;2023-04-03T03:34:06;7.25;;;3.50;;
73841;SDS011;62184;52.006;5.924;2023-04-03T03:36:33;7.80;;;3.65;;
73841;SDS011;62184;52.006;5.924;2023-04-03T03:38:59;8.18;;;3.50;;
73841;SDS011;62184;52.006;5.924;2023-04-03T03:41:25;7.22;;;3.40;;
73841;SDS011;62184;52.006;5.924;2023-04-03T03:43:52;8.63;;;3.72;;
73841;SDS011;62184;52.006;5.924;2023-04-03T03:46:18;8.23;;;4.00;;
73841;SDS011;62184;52.006;5.924;2023-04-03T03:48:45;9.63;;;3.83;;
73841;SDS011;62184;52.006;5.924;2023-04-03T03:51:14;8.43;;;4.10;;
73841;SDS011;62184;52.006;5.924;2023-04-03T03:53:40;7.55;;;3.90;;
73841;SDS011;62184;52.006;5.924;2023-04-03T03:56:06;7.55;;;3.38;;
73841;SDS011;62184;52.006;5.924;2023-04-03T03:58:33;8.13;;;3.83;;
73841;SDS011;62184;52.006;5.924;2023-04-03T04:01:00;8.38;;;3.92;;
73841;SDS011;62184;52.006;5.924;2023-04-03T04:03:27;8.45;;;4.68;;
73841;SDS011;62184;52.006;5.924;2023-04-03T04:05:54;8.93;;;4.53;;
73841;SDS011;62184;52.006;5.924;2023-04-03T04:08:23;8.57;;;3.67;;
73841;SDS011;62184;52.006;5.924;2023-04-03T04:10:50;8.87;;;3.43;;
73841;SDS011;62184;52.006;5.924;2023-04-03T04:13:16;9.37;;;3.63;;
73841;SDS011;62184;52.006;5.924;2023-04-03T04:15:43;8.57;;;4.15;;
73841;SDS011;62184;52.006;5.924;2023-04-03T04:18:09;8.25;;;3.67;;
73841;SDS011;62184;52.006;5.924;2023-04-03T04:20:36;9.05;;;3.78;;
73841;SDS011;62184;52.006;5.924;2023-04-03T04:23:02;7.95;;;3.85;;
73841;SDS011;62184;52.006;5.924;2023-04-03T04:25:31;6.60;;;3.40;;
73841;SDS011;62184;52.006;5.924;2023-04-03T04:27:58;8.10;;;3.60;;
73841;SDS011;62184;52.006;5.924;2023-04-03T04:30:24;8.88;;;3.80;;
73841;SDS011;62184;52.006;5.924;2023-04-03T04:32:50;7.57;;;3.60;;
73841;SDS011;62184;52.006;5.924;2023-04-03T04:35:17;8.68;;;3.45;;
73841;SDS011;62184;52.006;5.924;2023-04-03T04:37:43;8.48;;;3.92;;
73841;SDS011;62184;52.006;5.924;2023-04-03T04:40:10;8.88;;;3.65;;
73841;SDS011;62184;52.006;5.924;2023-04-03T04:42:39;8.05;;;4.03;;
73841;SDS011;62184;52.006;5.924;2023-04-03T04:45:06;6.67;;;3.60;;
73841;SDS011;62184;52.006;5.924;2023-04-03T04:47:33;9.00;;;3.80;;
73841;SDS011;62184;52.006;5.924;2023-04-03T04:49:59;7.82;;;3.90;;
73841;SDS011;62184;52.006;5.924;2023-04-03T04:52:26;9.68;;;3.80;;
73841;SDS011;62184;52.006;5.924;2023-04-03T04:54:52;8.23;;;4.45;;
73841;SDS011;62184;52.006;5.924;2023-04-03T04:57:19;10.32;;;3.88;;
73841;SDS011;62184;52.006;5.924;2023-04-03T04:59:48;8.23;;;3.90;;
73841;SDS011;62184;52.006;5.924;2023-04-03T05:02:14;8.97;;;4.07;;
73841;SDS011;62184;52.006;5.924;2023-04-03T05:04:41;9.23;;;4.27;;
73841;SDS011;62184;52.006;5.924;2023-04-03T05:07:07;8.38;;;4.07;;
73841;SDS011;62184;52.006;5.924;2023-04-03T05:09:34;9.65;;;3.88;;
73841;SDS011;62184;52.006;5.924;2023-04-03T05:12:00;9.05;;;3.80;;
73841;SDS011;62184;52.006;5.924;2023-04-03T05:14:27;9.48;;;3.58;;
73841;SDS011;62184;52.006;5.924;2023-04-03T05:16:56;7.45;;;3.38;;
73841;SDS011;62184;52.006;5.924;2023-04-03T05:19:22;6.97;;;3.20;;
73841;SDS011;62184;52.006;5.924;2023-04-03T05:21:49;8.10;;;3.10;;
73841;SDS011;62184;52.006;5.924;2023-04-03T05:24:15;9.63;;;3.30;;
73841;SDS011;62184;52.006;5.924;2023-04-03T05:26:42;7.25;;;3.20;;
73841;SDS011;62184;52.006;5.924;2023-04-03T05:29:09;16.42;;;5.28;;
73841;SDS011;62184;52.006;5.924;2023-04-03T05:31:36;8.83;;;3.20;;
73841;SDS011;62184;52.006;5.924;2023-04-03T05:34:06;8.90;;;3.60;;
73841;SDS011;62184;52.006;5.924;2023-04-03T05:36:32;6.70;;;3.40;;
73841;SDS011;62184;52.006;5.924;2023-04-03T05:38:59;7.47;;;3.50;;
73841;SDS011;62184;52.006;5.924;2023-04-03T05:41:25;7.95;;;3.58;;
73841;SDS011;62184;52.006;5.924;2023-04-03T05:43:52;7.37;;;3.57;;
73841;SDS011;62184;52.006;5.924;2023-04-03T05:46:19;8.77;;;3.63;;
73841;SDS011;62184;52.006;5.924;2023-04-03T05:48:46;7.20;;;3.10;;
73841;SDS011;62184;52.006;5.924;2023-04-03T05:51:16;8.80;;;3.20;;
73841;SDS011;62184;52.006;5.924;2023-04-03T05:53:45;9.00;;;3.53;;
73841;SDS011;62184;52.006;5.924;2023-04-03T05:56:14;9.95;;;3.42;;
73841;SDS011;62184;52.006;5.924;2023-04-03T05:58:40;10.00;;;3.75;;
73841;SDS011;62184;52.006;5.924;2023-04-03T06:01:07;8.07;;;3.58;;
73841;SDS011;62184;52.006;5.924;2023-04-03T06:03:33;9.00;;;3.67;;
73841;SDS011;62184;52.006;5.924;2023-04-03T06:06:01;8.50;;;3.53;;
73841;SDS011;62184;52.006;5.924;2023-04-03T06:08:33;8.10;;;3.80;;
73841;SDS011;62184;52.006;5.924;2023-04-03T06:10:59;7.63;;;3.35;;
73841;SDS011;62184;52.006;5.924;2023-04-03T06:13:26;9.05;;;4.00;;
73841;SDS011;62184;52.006;5.924;2023-04-03T06:15:52;8.13;;;3.53;;
73841;SDS011;62184;52.006;5.924;2023-04-03T06:18:19;7.72;;;3.60;;
73841;SDS011;62184;52.006;5.924;2023-04-03T06:20:45;9.40;;;3.85;;
73841;SDS011;62184;52.006;5.924;2023-04-03T06:23:11;8.52;;;3.20;;
73841;SDS011;62184;52.006;5.924;2023-04-03T06:25:40;10.07;;;3.75;;
73841;SDS011;62184;52.006;5.924;2023-04-03T06:28:08;7.47;;;3.40;;
73841;SDS011;62184;52.006;5.924;2023-04-03T06:30:35;8.13;;;3.10;;
73841;SDS011;62184;52.006;5.924;2023-04-03T06:33:02;7.97;;;3.40;;
73841;SDS011;62184;52.006;5.924;2023-04-03T06:35:29;7.95;;;3.47;;
73841;SDS011;62184;52.006;5.924;2023-04-03T06:37:56;8.05;;;3.20;;
73841;SDS011;62184;52.006;5.924;2023-04-03T06:40:23;8.37;;;3.13;;
73841;SDS011;62184;52.006;5.924;2023-04-03T06:42:53;7.47;;;3.30;;
73841;SDS011;62184;52.006;5.924;2023-04-03T06:45:20;8.60;;;3.38;;
73841;SDS011;62184;52.006;5.924;2023-04-03T06:47:46;8.00;;;3.25;;
73841;SDS011;62184;52.006;5.924;2023-04-03T06:50:13;8.18;;;3.08;;
73841;SDS011;62184;52.006;5.924;2023-04-03T06:52:39;7.80;;;3.10;;
73841;SDS011;62184;52.006;5.924;2023-04-03T06:55:06;7.28;;;3.50;;
73841;SDS011;62184;52.006;5.924;2023-04-03T06:57:34;6.28;;;2.90;;
73841;SDS011;62184;52.006;5.924;2023-04-03T07:00:04;7.55;;;3.30;;
73841;SDS011;62184;52.006;5.924;2023-04-03T07:02:33;6.80;;;2.97;;
73841;SDS011;62184;52.006;5.924;2023-04-03T07:04:59;8.10;;;2.97;;
73841;SDS011;62184;52.006;5.924;2023-04-03T07:07:25;6.72;;;3.10;;
73841;SDS011;62184;52.006;5.924;2023-04-03T07:09:52;7.60;;;2.90;;
73841;SDS011;62184;52.006;5.924;2023-04-03T07:12:19;7.13;;;3.13;;
73841;SDS011;62184;52.006;5.924;2023-04-03T07:14:45;8.70;;;3.37;;
73841;SDS011;62184;52.006;5.924;2023-04-03T07:17:14;6.50;;;3.50;;
73841;SDS011;62184;52.006;5.924;2023-04-03T07:19:41;8.00;;;3.17;;
73841;SDS011;62184;52.006;5.924;2023-04-03T07:22:07;5.38;;;3.03;;
73841;SDS011;62184;52.006;5.924;2023-04-03T07:24:34;6.60;;;3.00;;
73841;SDS011;62184;52.006;5.924;2023-04-03T07:27:01;7.10;;;3.57;;
73841;SDS011;62184;52.006;5.924;2023-04-03T07:29:27;7.43;;;3.77;;
73841;SDS011;62184;52.006;5.924;2023-04-03T07:31:54;8.35;;;3.08;;
73841;SDS011;62184;52.006;5.924;2023-04-03T07:34:23;6.65;;;3.33;;
73841;SDS011;62184;52.006;5.924;2023-04-03T07:36:49;5.90;;;2.92;;
73841;SDS011;62184;52.006;5.924;2023-04-03T07:39:16;6.00;;;2.60;;
73841;SDS011;62184;52.006;5.924;2023-04-03T07:41:42;6.03;;;3.00;;
73841;SDS011;62184;52.006;5.924;2023-04-03T07:44:09;6.00;;;2.88;;
73841;SDS011;62184;52.006;5.924;2023-04-03T07:46:35;6.55;;;3.00;;
73841;SDS011;62184;52.006;5.924;2023-04-03T07:49:02;6.67;;;2.90;;
73841;SDS011;62184;52.006;5.924;2023-04-03T07:51:31;6.40;;;2.97;;
73841;SDS011;62184;52.006;5.924;2023-04-03T07:53:57;6.35;;;2.83;;
73841;SDS011;62184;52.006;5.924;2023-04-03T07:56:24;6.18;;;2.70;;
73841;SDS011;62184;52.006;5.924;2023-04-03T07:58:50;5.00;;;2.70;;
73841;SDS011;62184;52.006;5.924;2023-04-03T08:01:16;5.43;;;2.83;;
73841;SDS011;62184;52.006;5.924;2023-04-03T08:03:43;6.07;;;3.28;;
73841;SDS011;62184;52.006;5.924;2023-04-03T08:06:09;5.97;;;2.97;;
73841;SDS011;62184;52.006;5.924;2023-04-03T08:08:38;6.28;;;2.90;;
73841;SDS011;62184;52.006;5.924;2023-04-03T08:11:05;5.47;;;2.55;;
73841;SDS011;62184;52.006;5.924;2023-04-03T08:13:32;6.47;;;2.92;;
73841;SDS011;62184;52.006;5.924;2023-04-03T08:16:06;6.50;;;3.15;;
73841;SDS011;62184;52.006;5.924;2023-04-03T08:18:35;5.70;;;3.17;;
73841;SDS011;62184;52.006;5.924;2023-04-03T08:21:04;4.80;;;2.73;;
73841;SDS011;62184;52.006;5.924;2023-04-03T08:23:32;6.32;;;3.30;;
73841;SDS011;62184;52.006;5.924;2023-04-03T08:26:04;5.40;;;3.08;;
73841;SDS011;62184;52.006;5.924;2023-04-03T08:28:32;6.78;;;2.88;;
73841;SDS011;62184;52.006;5.924;2023-04-03T08:31:02;5.47;;;3.53;;
73841;SDS011;62184;52.006;5.924;2023-04-03T08:33:29;5.28;;;2.97;;
73841;SDS011;62184;52.006;5.924;2023-04-03T08:35:56;6.13;;;3.08;;
73841;SDS011;62184;52.006;5.924;2023-04-03T08:38:22;5.10;;;2.47;;
73841;SDS011;62184;52.006;5.924;2023-04-03T08:41:01;5.40;;;2.72;;
73841;SDS011;62184;52.006;5.924;2023-04-03T08:43:54;5.25;;;3.20;;
73841;SDS011;62184;52.006;5.924;2023-04-03T08:46:32;4.80;;;3.10;;
73841;SDS011;62184;52.006;5.924;2023-04-03T08:49:15;5.47;;;2.92;;
73841;SDS011;62184;52.006;5.924;2023-04-03T08:51:50;5.05;;;3.17;;
73841;SDS011;62184;52.006;5.924;2023-04-03T08:54:21;4.20;;;2.70;;
73841;SDS011;62184;52.006;5.924;2023-04-03T08:56:59;4.10;;;2.58;;
73841;SDS011;62184;52.006;5.924;2023-04-03T08:59:29;5.68;;;2.95;;
73841;SDS011;62184;52.006;5.924;2023-04-03T09:02:02;3.90;;;2.40;;
73841;SDS011;62184;52.006;5.924;2023-04-03T09:04:45;4.00;;;2.80;;
73841;SDS011;62184;52.006;5.924;2023-04-03T09:07:13;5.70;;;2.92;;
73841;SDS011;62184;52.006;5.924;2023-04-03T09:09:54;5.25;;;2.78;;
73841;SDS011;62184;52.006;5.924;2023-04-03T09:12:27;4.90;;;2.90;;
73841;SDS011;62184;52.006;5.924;2023-04-03T09:15:07;4.10;;;2.60;;
73841;SDS011;62184;52.006;5.924;2023-04-03T09:17:46;3.90;;;2.60;;
73841;SDS011;62184;52.006;5.924;2023-04-03T09:20:26;6.70;;;5.23;;
73841;SDS011;62184;52.006;5.924;2023-04-03T09:23:17;4.18;;;3.10;;
73841;SDS011;62184;52.006;5.924;2023-04-03T09:25:51;4.65;;;3.20;;
73841;SDS011;62184;52.006;5.924;2023-04-03T09:28:29;5.50;;;3.60;;
73841;SDS011;62184;52.006;5.924;2023-04-03T09:30:59;4.20;;;2.83;;
73841;SDS011;62184;52.006;5.924;2023-04-03T09:33:26;4.40;;;3.10;;
73841;SDS011;62184;52.006;5.924;2023-04-03T09:35:55;3.80;;;2.65;;
73841;SDS011;62184;52.006;5.924;2023-04-03T09:38:22;5.10;;;2.70;;
73841;SDS011;62184;52.006;5.924;2023-04-03T09:40:48;4.10;;;2.50;;
73841;SDS011;62184;52.006;5.924;2023-04-03T09:43:30;4.38;;;2.97;;
73841;SDS011;62184;52.006;5.924;2023-04-03T09:48:55;4.30;;;3.10;;
73841;SDS011;62184;52.006;5.924;2023-04-03T09:51:24;4.47;;;3.30;;
73841;SDS011;62184;52.006;5.924;2023-04-03T09:53:53;4.50;;;3.30;;
73841;SDS011;62184;52.006;5.924;2023-04-03T09:56:21;4.10;;;2.90;;
73841;SDS011;62184;52.006;5.924;2023-04-03T09:59:05;4.80;;;3.23;;
73841;SDS011;62184;52.006;5.924;2023-04-03T10:01:41;4.88;;;3.10;;
73841;SDS011;62184;52.006;5.924;2023-04-03T10:04:22;4.07;;;2.90;;
73841;SDS011;62184;52.006;5.924;2023-04-03T10:06:49;4.70;;;2.90;;
73841;SDS011;62184;52.006;5.924;2023-04-03T10:09:20;4.32;;;3.20;;
73841;SDS011;62184;52.006;5.924;2023-04-03T10:11:57;4.10;;;3.25;;
73841;SDS011;62184;52.006;5.924;2023-04-03T10:14:30;5.43;;;3.63;;
73841;SDS011;62184;52.006;5.924;2023-04-03T10:17:00;4.55;;;3.03;;
73841;SDS011;62184;52.006;5.924;2023-04-03T10:19:40;4.45;;;3.33;;
73841;SDS011;62184;52.006;5.924;2023-04-03T10:22:14;4.97;;;3.08;;
73841;SDS011;62184;52.006;5.924;2023-04-03T10:24:51;5.60;;;3.42;;
73841;SDS011;62184;52.006;5.924;2023-04-03T10:27:31;4.50;;;3.50;;
73841;SDS011;62184;52.006;5.924;2023-04-03T10:30:19;4.57;;;3.30;;
73841;SDS011;62184;52.006;5.924;2023-04-03T10:33:00;5.60;;;3.33;;
73841;SDS011;62184;52.006;5.924;2023-04-03T10:35:44;4.43;;;3.08;;
73841;SDS011;62184;52.006;5.924;2023-04-03T10:38:27;5.68;;;3.38;;
73841;SDS011;62184;52.006;5.924;2023-04-03T10:41:07;5.45;;;3.30;;
73841;SDS011;62184;52.006;5.924;2023-04-03T10:43:47;4.67;;;3.23;;
73841;SDS011;62184;52.006;5.924;2023-04-03T10:46:33;5.28;;;3.25;;
73841;SDS011;62184;52.006;5.924;2023-04-03T10:49:13;4.65;;;3.40;;
73841;SDS011;62184;52.006;5.924;2023-04-03T10:51:55;4.60;;;3.40;;
73841;SDS011;62184;52.006;5.924;2023-04-03T10:54:31;4.63;;;3.58;;
73841;SDS011;62184;52.006;5.924;2023-04-03T10:57:05;5.20;;;3.37;;
73841;SDS011;62184;52.006;5.924;2023-04-03T10:59:35;5.50;;;3.47;;
73841;SDS011;62184;52.006;5.924;2023-04-03T11:02:11;5.03;;;3.40;;
73841;SDS011;62184;52.006;5.924;2023-04-03T11:04:50;5.18;;;3.60;;
73841;SDS011;62184;52.006;5.924;2023-04-03T11:07:25;4.55;;;3.55;;
73841;SDS011;62184;52.006;5.924;2023-04-03T11:09:58;4.75;;;3.88;;
73841;SDS011;62184;52.006;5.924;2023-04-03T11:12:33;4.75;;;4.07;;
73841;SDS011;62184;52.006;5.924;2023-04-03T11:15:11;5.47;;;3.53;;
73841;SDS011;62184;52.006;5.924;2023-04-03T11:17:45;4.82;;;3.65;;
73841;SDS011;62184;52.006;5.924;2023-04-03T11:20:21;5.53;;;3.50;;
73841;SDS011;62184;52.006;5.924;2023-04-03T11:22:57;5.47;;;3.50;;
73841;SDS011;62184;52.006;5.924;2023-04-03T11:25:29;5.65;;;4.00;;
73841;SDS011;62184;52.006;5.924;2023-04-03T11:28:00;5.30;;;4.07;;
73841;SDS011;62184;52.006;5.924;2023-04-03T11:30:32;5.15;;;3.67;;
73841;SDS011;62184;52.006;5.924;2023-04-03T11:33:24;5.45;;;3.65;;
73841;SDS011;62184;52.006;5.924;2023-04-03T11:36:06;5.65;;;4.43;;
73841;SDS011;62184;52.006;5.924;2023-04-03T11:38:41;5.95;;;4.45;;
73841;SDS011;62184;52.006;5.924;2023-04-03T11:41:13;5.00;;;4.07;;
73841;SDS011;62184;52.006;5.924;2023-04-03T11:43:41;5.03;;;4.53;;
73841;SDS011;62184;52.006;5.924;2023-04-03T11:46:24;5.83;;;4.20;;
73841;SDS011;62184;52.006;5.924;2023-04-03T11:55:56;5.07;;;4.10;;
73841;SDS011;62184;52.006;5.924;2023-04-03T11:58:30;5.20;;;4.70;;
73841;SDS011;62184;52.006;5.924;2023-04-03T12:01:00;5.45;;;4.20;;
73841;SDS011;62184;52.006;5.924;2023-04-03T12:12:57;5.90;;;4.60;;
73841;SDS011;62184;52.006;5.924;2023-04-03T12:15:41;6.13;;;4.80;;
73841;SDS011;62184;52.006;5.924;2023-04-03T12:18:40;5.30;;;4.80;;
73841;SDS011;62184;52.006;5.924;2023-04-03T12:21:09;5.30;;;4.80;;
73841;SDS011;62184;52.006;5.924;2023-04-03T12:23:54;6.82;;;4.53;;
73841;SDS011;62184;52.006;5.924;2023-04-03T12:26:26;5.60;;;4.63;;
73841;SDS011;62184;52.006;5.924;2023-04-03T12:29:01;5.20;;;4.70;;
73841;SDS011;62184;52.006;5.924;2023-04-03T12:31:42;5.57;;;4.85;;
73841;SDS011;62184;52.006;5.924;2023-04-03T12:34:24;5.95;;;4.80;;
73841;SDS011;62184;52.006;5.924;2023-04-03T12:37:17;6.28;;;4.90;;
73841;SDS011;62184;52.006;5.924;2023-04-03T12:40:10;6.18;;;5.10;;
73841;SDS011;62184;52.006;5.924;2023-04-03T12:42:54;5.70;;;5.10;;
73841;SDS011;62184;52.006;5.924;2023-04-03T12:45:56;6.55;;;5.50;;
73841;SDS011;62184;52.006;5.924;2023-04-03T12:48:29;6.05;;;5.28;;
73841;SDS011;62184;52.006;5.924;2023-04-03T12:51:03;6.82;;;5.90;;
73841;SDS011;62184;52.006;5.924;2023-04-03T12:53:33;6.90;;;6.20;;
73841;SDS011;62184;52.006;5.924;2023-04-03T12:58:55;7.25;;;6.20;;
73841;SDS011;62184;52.006;5.924;2023-04-03T13:01:39;7.65;;;6.03;;
73841;SDS011;62184;52.006;5.924;2023-04-03T13:04:05;6.55;;;5.95;;
73841;SDS011;62184;52.006;5.924;2023-04-03T13:06:34;6.88;;;6.20;;
73841;SDS011;62184;52.006;5.924;2023-04-03T13:09:14;7.00;;;6.30;;
73841;SDS011;62184;52.006;5.924;2023-04-03T13:11:49;7.10;;;6.50;;
73841;SDS011;62184;52.006;5.924;2023-04-03T13:14:22;6.93;;;6.30;;
73841;SDS011;62184;52.006;5.924;2023-04-03T13:16:54;7.30;;;6.60;;
73841;SDS011;62184;52.006;5.924;2023-04-03T13:19:22;7.53;;;6.80;;
73841;SDS011;62184;52.006;5.924;2023-04-03T13:21:54;6.60;;;6.00;;
73841;SDS011;62184;52.006;5.924;2023-04-03T13:24:27;7.07;;;6.47;;
73841;SDS011;62184;52.006;5.924;2023-04-03T13:27:01;7.50;;;6.50;;
73841;SDS011;62184;52.006;5.924;2023-04-03T13:29:29;7.25;;;6.55;;
73841;SDS011;62184;52.006;5.924;2023-04-03T13:32:00;7.18;;;6.47;;
73841;SDS011;62184;52.006;5.924;2023-04-03T13:34:29;7.60;;;6.80;;
73841;SDS011;62184;52.006;5.924;2023-04-03T13:37:06;7.20;;;6.57;;
73841;SDS011;62184;52.006;5.924;2023-04-03T13:39:34;8.00;;;7.20;;
73841;SDS011;62184;52.006;5.924;2023-04-03T13:42:14;7.50;;;6.90;;
73841;SDS011;62184;52.006;5.924;2023-04-03T13:44:47;8.00;;;7.30;;
73841;SDS011;62184;52.006;5.924;2023-04-03T13:47:16;8.43;;;7.63;;
73841;SDS011;62184;52.006;5.924;2023-04-03T13:49:58;8.10;;;7.30;;
73841;SDS011;62184;52.006;5.924;2023-04-03T13:52:30;8.23;;;7.43;;
73841;SDS011;62184;52.006;5.924;2023-04-03T13:54:59;8.05;;;7.28;;
73841;SDS011;62184;52.006;5.924;2023-04-03T13:57:50;7.85;;;7.15;;
73841;SDS011;62184;52.006;5.924;2023-04-03T14:00:26;7.80;;;7.10;;
73841;SDS011;62184;52.006;5.924;2023-04-03T14:02:58;7.73;;;7.03;;
73841;SDS011;62184;52.006;5.924;2023-04-03T14:05:25;7.70;;;6.90;;
73841;SDS011;62184;52.006;5.924;2023-04-03T14:07:52;8.50;;;7.80;;
73841;SDS011;62184;52.006;5.924;2023-04-03T14:10:19;7.83;;;7.10;;
73841;SDS011;62184;52.006;5.924;2023-04-03T14:12:47;8.20;;;7.50;;
73841;SDS011;62184;52.006;5.924;2023-04-03T14:15:18;8.15;;;7.35;;
73841;SDS011;62184;52.006;5.924;2023-04-03T14:17:49;8.77;;;7.97;;
73841;SDS011;62184;52.006;5.924;2023-04-03T14:20:17;8.65;;;7.85;;
73841;SDS011;62184;52.006;5.924;2023-04-03T14:22:46;8.73;;;7.93;;
73841;SDS011;62184;52.006;5.924;2023-04-03T14:25:14;8.68;;;7.88;;
73841;SDS011;62184;52.006;5.924;2023-04-03T14:27:42;7.90;;;7.10;;
73841;SDS011;62184;52.006;5.924;2023-04-03T14:30:15;8.27;;;7.47;;
73841;SDS011;62184;52.006;5.924;2023-04-03T14:32:45;8.27;;;7.47;;
73841;SDS011;62184;52.006;5.924;2023-04-03T14:35:13;8.52;;;7.72;;
73841;SDS011;62184;52.006;5.924;2023-04-03T14:37:40;8.23;;;7.43;;
73841;SDS011;62184;52.006;5.924;2023-04-03T14:40:08;8.23;;;7.50;;
73841;SDS011;62184;52.006;5.924;2023-04-03T14:42:41;8.40;;;7.60;;
73841;SDS011;62184;52.006;5.924;2023-04-03T14:45:08;8.35;;;7.45;;
73841;SDS011;62184;52.006;5.924;2023-04-03T14:47:42;8.32;;;7.53;;
73841;SDS011;62184;52.006;5.924;2023-04-03T14:50:14;7.82;;;7.10;;
73841;SDS011;62184;52.006;5.924;2023-04-03T14:52:44;8.18;;;7.38;;
73841;SDS011;62184;52.006;5.924;2023-04-03T14:55:11;8.63;;;7.82;;
73841;SDS011;62184;52.006;5.924;2023-04-03T14:57:40;8.47;;;7.67;;
73841;SDS011;62184;52.006;5.924;2023-04-03T15:00:10;8.77;;;7.88;;
73841;SDS011;62184;52.006;5.924;2023-04-03T15:02:42;8.80;;;8.00;;
73841;SDS011;62184;52.006;5.924;2023-04-03T15:05:10;8.85;;;8.05;;
73841;SDS011;62184;52.006;5.924;2023-04-03T15:07:38;8.70;;;7.90;;
73841;SDS011;62184;52.006;5.924;2023-04-03T15:10:14;8.50;;;7.70;;
73841;SDS011;62184;52.006;5.924;2023-04-03T15:12:46;8.63;;;7.78;;
73841;SDS011;62184;52.006;5.924;2023-04-03T15:15:15;8.40;;;7.60;;
73841;SDS011;62184;52.006;5.924;2023-04-03T15:17:47;8.60;;;7.80;;
73841;SDS011;62184;52.006;5.924;2023-04-03T15:20:20;8.40;;;7.60;;
73841;SDS011;62184;52.006;5.924;2023-04-03T15:22:49;8.25;;;7.45;;
73841;SDS011;62184;52.006;5.924;2023-04-03T15:25:16;8.50;;;7.70;;
73841;SDS011;62184;52.006;5.924;2023-04-03T15:27:42;8.70;;;7.80;;
73841;SDS011;62184;52.006;5.924;2023-04-03T15:30:11;8.60;;;7.90;;
73841;SDS011;62184;52.006;5.924;2023-04-03T15:32:42;9.17;;;8.20;;